Latest Weather Observations for Rocky Gully South

IDW60801

Issued at 6:33 am WST Monday 27 June 2016 (issued every 30 minutes, with the page automatically refreshed every 10 minutes)

About weather observations | Map of weather stations | Latest weather observations for WA | Other Formats
Station Details ID: 009964 Name: ROCKY GULLY Lat: -34.57 Lon: 117.01 Height: 250.0 m
Data from the previous 72 hours. | See also: Recent months at Rocky Gully South
Date/Time
WST
Temp
°C
App
Temp
°C
Dew
Point
°C
Rel
Hum
%
Delta-T
°C
Wind Press
QNH
hPa
Press
MSL
hPa
Rain since
9am
mm
Dir  Spd
km/h
Gust
km/h
Spd
kts
Gust
kts
27/06:30am 8.5 6.1 6.8 89 0.8 N 9 15 5 8 - - 0.6
27/06:00am 9.1 6.8 7.5 90 0.8 N 9 13 5 7 - - 0.4
27/05:30am 9.1 6.8 7.4 89 0.8 N 9 13 5 7 - - 0.4
27/05:00am 9.8 7.6 7.9 88 0.9 N 9 19 5 10 - - 0.4
27/04:30am 10.0 7.4 7.9 87 1.0 N 11 17 6 9 - - 0.0
27/04:00am 10.2 7.2 7.8 85 1.2 N 13 20 7 11 - - 0.0
27/03:30am 9.5 7.5 7.3 86 1.1 N 7 15 4 8 - - 0.0
27/03:00am 9.2 6.8 6.8 85 1.1 N 9 15 5 8 - - 0.0
27/02:30am 9.3 6.9 7.1 86 1.0 N 9 15 5 8 - - 0.0
27/02:00am 9.1 6.7 6.9 86 1.0 N 9 13 5 7 - - 0.0
27/01:30am 9.1 6.7 6.9 86 1.0 N 9 13 5 7 - - 0.0
27/01:00am 8.9 6.4 6.7 86 1.0 N 9 13 5 7 - - 0.0
27/12:30am 9.0 6.4 6.3 83 1.3 N 9 13 5 7 - - 0.0
27/12:00am 9.2 6.3 6.6 84 1.2 NNW 11 15 6 8 - - 0.0
 
Date/Time
WST
Temp
°C
App
Temp
°C
Dew
Point
°C
Rel
Hum
%
Delta-T
°C
Wind Press
QNH
hPa
Press
MSL
hPa
Rain since
9am
mm
Dir  Spd
km/h
Gust
km/h
Spd
kts
Gust
kts
26/11:30pm 9.1 6.2 6.7 85 1.1 N 11 15 6 8 - - 0.0
26/11:00pm 8.8 5.9 6.4 85 1.1 N 11 17 6 9 - - 0.0
26/10:30pm 8.8 6.2 6.2 84 1.2 N 9 13 5 7 - - 0.0
26/10:00pm 8.8 6.2 6.1 83 1.3 N 9 13 5 7 - - 0.0
26/09:30pm 9.2 6.6 6.3 82 1.4 N 9 11 5 6 - - 0.0
26/09:00pm 9.6 7.0 6.3 80 1.6 N 9 15 5 8 - - 0.0
26/08:30pm 9.9 7.5 6.8 81 1.5 NNW 9 13 5 7 - - 0.0
26/08:00pm 9.1 6.9 6.0 81 1.4 NNW 7 9 4 5 - - 0.0
26/07:30pm 9.1 6.8 5.7 79 1.6 N 7 9 4 5 - - 0.0
26/07:00pm 9.9 7.5 5.3 73 2.1 NNW 7 11 4 6 - - 0.0
26/06:30pm 10.9 8.3 5.9 71 2.4 NNW 9 15 5 8 - - 0.0
26/06:00pm 11.4 9.1 5.9 69 2.6 NW 7 11 4 6 - - 0.0
26/05:30pm 12.0 9.4 5.9 66 2.9 NW 9 20 5 11 - - 0.0
26/05:00pm 12.3 9.2 5.7 64 3.1 WNW 11 24 6 13 - - 0.0
26/04:30pm 12.3 9.5 5.2 62 3.3 NW 9 17 5 9 - - 0.0
26/04:00pm 13.6 10.9 5.7 59 3.8 NW 9 15 5 8 - - 0.0
26/03:30pm 13.3 10.2 5.7 60 3.6 NW 11 20 6 11 - - 0.0
26/03:00pm 13.5 9.3 5.7 59 3.7 NW 17 33 9 18 - - 0.0
26/02:30pm 13.7 10.3 5.8 59 3.8 NW 13 24 7 13 - - 0.0
26/02:00pm 13.6 9.4 5.7 59 3.8 NW 17 32 9 17 - - 0.0
26/01:30pm 13.8 10.4 5.7 58 3.9 WNW 13 24 7 13 - - 0.0
26/01:00pm 14.0 10.7 6.6 61 3.6 NW 13 24 7 13 - - 0.0
26/12:30pm 13.3 9.9 5.7 60 3.6 NW 13 20 7 11 - - 0.0
26/12:00pm 13.5 10.1 5.7 59 3.7 NW 13 20 7 11 - - 0.0
26/11:30am 12.7 9.7 6.1 64 3.2 NNW 11 20 6 11 - - 0.0
26/11:00am 11.9 9.1 6.8 71 2.5 NNW 11 15 6 8 - - 0.0
26/10:30am 11.0 7.3 6.2 72 2.3 NNW 15 22 8 12 - - 0.0
26/10:00am 10.5 6.8 6.1 74 2.1 NW 15 28 8 15 - - 0.0
26/09:30am 9.4 6.9 6.7 83 1.3 NNW 9 13 5 7 - - 0.0
26/09:00am 8.5 5.5 6.1 85 1.1 N 11 17 6 9 - - 0.4
26/08:30am 8.3 5.4 6.3 87 0.9 NNW 11 15 6 8 - - 0.4
26/08:00am 6.7 3.9 5.2 90 0.7 NNW 9 15 5 8 - - 0.4
26/07:30am 6.2 2.9 4.8 91 0.6 N 11 15 6 8 - - 0.4
26/07:00am 6.1 2.9 4.9 92 0.5 N 11 15 6 8 - - 0.4
26/06:30am 5.7 3.2 4.7 93 0.4 N 7 11 4 6 - - 0.4
26/06:00am 5.7 2.8 4.7 93 0.4 N 9 13 5 7 - - 0.4
26/05:30am 5.8 2.5 4.8 93 0.4 NNW 11 15 6 8 - - 0.4
26/05:00am 5.4 2.5 4.4 93 0.4 N 9 11 5 6 - - 0.4
26/04:30am 5.9 3.0 4.9 93 0.4 N 9 13 5 7 - - 0.4
26/04:00am 5.8 3.5 4.8 93 0.4 N 6 9 3 5 - - 0.4
26/03:30am 6.3 4.1 5.3 93 0.4 N 6 9 3 5 - - 0.4
26/03:00am 6.6 4.5 5.6 93 0.5 N 6 7 3 4 - - 0.4
26/02:30am 6.9 5.2 5.8 93 0.5 N 4 7 2 4 - - 0.4
26/02:00am 6.7 5.3 5.7 93 0.5 SW 2 9 1 5 - - 0.4
26/01:30am 6.7 5.7 5.7 93 0.5 CALM 0 6 0 3 - - 0.4
26/01:00am 7.1 5.8 6.0 93 0.5 W 2 7 1 4 - - 0.4
26/12:30am 6.4 4.6 5.4 93 0.4 N 4 7 2 4 - - 0.4
26/12:00am 6.0 4.1 5.0 93 0.4 NNW 4 7 2 4 - - 0.4
 
Date/Time
WST
Temp
°C
App
Temp
°C
Dew
Point
°C
Rel
Hum
%
Delta-T
°C
Wind Press
QNH
hPa
Press
MSL
hPa
Rain since
9am
mm
Dir  Spd
km/h
Gust
km/h
Spd
kts
Gust
kts
25/11:30pm 5.4 3.0 4.4 93 0.4 N 6 7 3 4 - - 0.4
25/11:00pm 5.3 2.9 4.1 92 0.5 N 6 7 3 4 - - 0.4
25/10:30pm 5.5 4.2 4.3 92 0.5 CALM 0 0 0 0 - - 0.4
25/10:00pm 5.7 3.3 4.5 92 0.5 N 6 7 3 4 - - 0.4
25/09:30pm 5.8 3.8 4.6 92 0.5 NNW 4 6 2 3 - - 0.4
25/09:00pm 5.7 3.3 4.3 91 0.6 N 6 7 3 4 - - 0.4
25/08:30pm 6.1 4.5 4.6 90 0.7 N 2 7 1 4 - - 0.4
25/08:00pm 6.3 4.0 4.8 90 0.7 N 6 7 3 4 - - 0.4
25/07:30pm 6.6 4.7 4.9 89 0.8 N 4 6 2 3 - - 0.4
25/07:00pm 6.9 4.6 4.9 87 0.9 N 6 7 3 4 - - 0.4
25/06:30pm 7.4 6.3 5.0 85 1.1 CALM 0 0 0 0 - - 0.4
25/06:00pm 7.9 6.9 5.4 84 1.1 CALM 0 0 0 0 - - 0.4
25/05:30pm 9.0 6.9 5.6 79 1.6 NW 6 7 3 4 - - 0.4
25/05:00pm 10.3 8.1 5.5 72 2.2 W 6 9 3 5 - - 0.4
25/04:30pm 11.0 7.2 5.7 70 2.5 SW 15 26 8 14 - - 0.4
25/04:00pm 11.8 9.1 5.7 66 2.9 SSW 9 17 5 9 - - 0.4
25/03:30pm 12.5 9.7 5.2 61 3.4 WSW 9 15 5 8 - - 0.4
25/03:00pm 12.6 9.4 5.3 61 3.4 SW 11 19 6 10 - - 0.4
25/02:30pm 12.7 9.1 5.1 60 3.6 SW 13 28 7 15 - - 0.4
25/02:00pm 13.1 10.4 5.5 60 3.6 SW 9 17 5 9 - - 0.4
25/01:30pm 11.9 9.1 6.8 71 2.5 WSW 11 20 6 11 - - 0.4
25/01:00pm 12.2 10.0 7.7 74 2.2 SW 9 15 5 8 - - 0.4
25/12:30pm 10.5 7.6 6.6 77 1.9 WSW 11 20 6 11 - - 0.4
25/12:00pm 12.5 9.3 5.0 60 3.5 SSW 11 19 6 10 - - 0.0
25/11:30am 12.3 8.7 5.0 61 3.4 SSW 13 22 7 12 - - 0.0
25/11:00am 12.2 9.0 6.9 70 2.6 SW 13 20 7 11 - - 0.0
25/10:30am 11.4 8.4 7.7 78 1.8 WSW 13 22 7 12 - - 0.0
25/10:00am 10.6 8.6 8.7 88 0.9 WSW 9 15 5 8 - - 0.0
25/09:30am 9.9 8.3 8.7 92 0.6 W 7 13 4 7 - - 0.0
25/09:00am 8.9 7.0 7.7 92 0.6 WSW 7 13 4 7 - - 7.0
25/08:30am 9.1 7.5 7.9 92 0.6 WSW 6 9 3 5 - - 7.0
25/08:00am 9.2 7.6 8.0 92 0.6 WSW 6 11 3 6 - - 7.0
25/07:30am 9.4 7.8 8.2 92 0.6 WSW 6 9 3 5 - - 6.8
25/07:00am 9.6 7.9 8.4 92 0.6 WSW 7 9 4 5 - - 6.8
25/06:30am 9.8 8.1 8.4 91 0.7 SW 7 13 4 7 - - 6.8
25/06:00am 10.2 7.8 8.8 91 0.7 WSW 11 20 6 11 - - 6.8
25/05:30am 10.4 8.5 9.0 91 0.7 W 9 19 5 10 - - 5.4
25/05:00am 10.6 8.3 8.9 89 0.9 WNW 11 19 6 10 - - 2.0
25/04:30am 10.9 7.8 8.8 87 1.1 NW 15 26 8 14 - - 0.0
25/04:00am 10.7 8.3 8.6 87 1.0 NNW 11 15 6 8 - - 0.0
25/03:30am 10.8 8.1 8.9 88 1.0 NNW 13 24 7 13 - - 0.0
25/03:00am 10.5 7.8 8.8 89 0.8 NNW 13 19 7 10 - - 0.0
25/02:30am 10.5 7.8 8.8 89 0.8 NNW 13 24 7 13 - - 0.0
25/02:00am 10.5 7.7 8.6 88 0.9 NNW 13 24 7 13 - - 0.0
25/01:30am 10.5 7.7 8.6 88 0.9 NNW 13 20 7 11 - - 0.0
25/01:00am 10.6 7.0 8.5 87 1.0 NNW 17 30 9 16 - - 0.0
25/12:30am 10.4 7.2 8.3 87 1.0 NNW 15 24 8 13 - - 0.0
25/12:00am 10.2 7.7 8.0 86 1.1 N 11 19 6 10 - - 0.0
 
Date/Time
WST
Temp
°C
App
Temp
°C
Dew
Point
°C
Rel
Hum
%
Delta-T
°C
Wind Press
QNH
hPa
Press
MSL
hPa
Rain since
9am
mm
Dir  Spd
km/h
Gust
km/h
Spd
kts
Gust
kts
24/11:30pm 10.3 6.9 7.5 83 1.4 N 15 26 8 14 - - 0.0
24/11:00pm 10.4 7.3 7.3 81 1.5 N 13 24 7 13 - - 0.0
24/10:30pm 10.1 6.9 7.0 81 1.5 N 13 20 7 11 - - 0.0
24/10:00pm 10.2 7.4 6.9 80 1.6 N 11 17 6 9 - - 0.0
24/09:30pm 10.1 6.6 7.0 81 1.5 N 15 22 8 12 - - 0.0
24/09:00pm 9.7 6.5 7.0 83 1.3 N 13 20 7 11 - - 0.0
24/08:30pm 9.5 6.3 6.8 83 1.3 NNW 13 20 7 11 - - 0.0
24/08:00pm 9.5 6.3 6.9 84 1.2 N 13 20 7 11 - - 0.0
24/07:30pm 9.2 7.1 6.6 84 1.2 N 7 11 4 6 - - 0.0
24/07:00pm 9.6 7.1 6.7 82 1.4 N 9 13 5 7 - - 0.0
24/06:30pm 9.9 7.8 6.6 80 1.6 N 7 9 4 5 - - 0.0
24/06:00pm 10.7 8.6 6.6 76 2.0 N 7 13 4 7 - - 0.0
24/05:30pm 11.9 9.2 7.2 73 2.3 NNW 11 17 6 9 - - 0.0
24/05:00pm 12.4 9.7 7.5 72 2.4 NNW 11 20 6 11 - - 0.0
24/04:30pm 12.7 10.0 7.4 70 2.6 NNW 11 19 6 10 - - 0.0
24/04:00pm 12.9 10.2 7.4 69 2.7 NNW 11 15 6 8 - - 0.0
24/03:30pm 13.1 10.4 7.3 68 2.9 NNW 11 19 6 10 - - 0.0
24/03:00pm 13.1 10.0 7.1 67 2.9 NNW 13 22 7 12 - - 0.0
24/02:30pm 13.3 10.5 7.1 66 3.0 N 11 17 6 9 - - 0.0
24/02:00pm 13.5 9.9 6.8 64 3.3 NNW 15 24 8 13 - - 0.0
24/01:30pm 13.6 10.0 6.7 63 3.4 N 15 20 8 11 - - 0.0
24/01:00pm 13.2 9.5 6.5 64 3.2 N 15 24 8 13 - - 0.0
24/12:30pm 13.1 9.8 6.5 64 3.2 N 13 20 7 11 - - 0.0
24/12:00pm 12.4 9.4 6.2 66 3.0 N 11 20 6 11 - - 0.0
24/11:30am 12.0 9.0 5.9 66 2.9 N 11 20 6 11 - - 0.0
24/11:00am 11.4 8.0 5.9 69 2.6 N 13 20 7 11 - - 0.0
24/10:30am 10.5 7.1 5.9 73 2.2 N 13 20 7 11 - - 0.0
24/10:00am 10.3 7.8 6.6 78 1.8 N 9 15 5 8 - - 0.0
24/09:30am 9.4 6.4 6.1 80 1.5 N 11 17 6 9 - - 0.0
24/09:00am 8.8 6.2 6.1 83 1.3 N 9 13 5 7 - - 0.0
24/08:30am 8.1 5.8 5.9 86 1.0 N 7 13 4 7 - - 0.0
24/08:00am 7.7 5.6 5.8 88 0.9 N 6 11 3 6 - - 0.0
24/07:30am 7.2 4.9 5.5 89 0.8 NNW 7 11 4 6 - - 0.0
24/07:00am 6.9 4.6 5.5 91 0.6 N 7 11 4 6 - - 0.0

Other Formats:

Comma delimited format used in spreadsheet applications
http://www.bom.gov.au/fwo/IDW60801/IDW60801.94631.axf

JavaScript Object Notation format (JSON) in row-major order
http://www.bom.gov.au/fwo/IDW60801/IDW60801.94631.json